sensor_id;sensor_type;location;lat;lon;timestamp;P1;durP1;ratioP1;P2;durP2;ratioP2
15806;SDS011;8005;51.368;6.140;2023-02-28T00:01:04;11.38;;;4.57;;
15806;SDS011;8005;51.368;6.140;2023-02-28T00:02:39;6.90;;;4.20;;
15806;SDS011;8005;51.368;6.140;2023-02-28T00:04:12;7.90;;;4.07;;
15806;SDS011;8005;51.368;6.140;2023-02-28T00:05:44;8.88;;;4.03;;
15806;SDS011;8005;51.368;6.140;2023-02-28T00:07:16;9.55;;;4.40;;
15806;SDS011;8005;51.368;6.140;2023-02-28T00:08:49;6.90;;;4.30;;
15806;SDS011;8005;51.368;6.140;2023-02-28T00:10:23;10.32;;;4.03;;
15806;SDS011;8005;51.368;6.140;2023-02-28T00:12:00;9.52;;;4.60;;
15806;SDS011;8005;51.368;6.140;2023-02-28T00:13:35;9.15;;;4.30;;
15806;SDS011;8005;51.368;6.140;2023-02-28T00:15:12;7.95;;;4.20;;
15806;SDS011;8005;51.368;6.140;2023-02-28T00:16:45;9.07;;;3.80;;
15806;SDS011;8005;51.368;6.140;2023-02-28T00:18:17;7.05;;;3.22;;
15806;SDS011;8005;51.368;6.140;2023-02-28T00:19:49;8.52;;;4.05;;
15806;SDS011;8005;51.368;6.140;2023-02-28T00:21:22;7.13;;;3.65;;
15806;SDS011;8005;51.368;6.140;2023-02-28T00:22:56;9.35;;;4.20;;
15806;SDS011;8005;51.368;6.140;2023-02-28T00:24:31;7.95;;;3.97;;
15806;SDS011;8005;51.368;6.140;2023-02-28T00:26:03;10.27;;;3.47;;
15806;SDS011;8005;51.368;6.140;2023-02-28T00:27:36;8.07;;;4.00;;
15806;SDS011;8005;51.368;6.140;2023-02-28T00:29:09;9.82;;;3.88;;
15806;SDS011;8005;51.368;6.140;2023-02-28T00:30:41;8.02;;;4.05;;
15806;SDS011;8005;51.368;6.140;2023-02-28T00:32:14;8.00;;;4.82;;
15806;SDS011;8005;51.368;6.140;2023-02-28T00:33:46;6.50;;;3.97;;
15806;SDS011;8005;51.368;6.140;2023-02-28T00:35:18;7.03;;;3.85;;
15806;SDS011;8005;51.368;6.140;2023-02-28T00:36:50;8.65;;;4.32;;
15806;SDS011;8005;51.368;6.140;2023-02-28T00:38:25;10.07;;;4.40;;
15806;SDS011;8005;51.368;6.140;2023-02-28T00:40:11;8.35;;;4.07;;
15806;SDS011;8005;51.368;6.140;2023-02-28T00:42:05;6.88;;;4.03;;
15806;SDS011;8005;51.368;6.140;2023-02-28T00:44:13;7.35;;;4.03;;
15806;SDS011;8005;51.368;6.140;2023-02-28T00:45:47;10.38;;;4.47;;
15806;SDS011;8005;51.368;6.140;2023-02-28T00:47:19;11.35;;;4.13;;
15806;SDS011;8005;51.368;6.140;2023-02-28T00:48:51;9.48;;;4.35;;
15806;SDS011;8005;51.368;6.140;2023-02-28T00:50:25;9.48;;;4.90;;
15806;SDS011;8005;51.368;6.140;2023-02-28T00:51:57;12.00;;;5.18;;
15806;SDS011;8005;51.368;6.140;2023-02-28T00:53:30;8.48;;;4.57;;
15806;SDS011;8005;51.368;6.140;2023-02-28T00:55:24;10.88;;;4.25;;
15806;SDS011;8005;51.368;6.140;2023-02-28T00:56:56;9.68;;;4.60;;
15806;SDS011;8005;51.368;6.140;2023-02-28T00:58:29;7.25;;;4.38;;
15806;SDS011;8005;51.368;6.140;2023-02-28T01:00:01;9.10;;;4.47;;
15806;SDS011;8005;51.368;6.140;2023-02-28T01:01:34;11.38;;;4.30;;
15806;SDS011;8005;51.368;6.140;2023-02-28T01:03:07;6.93;;;5.00;;
15806;SDS011;8005;51.368;6.140;2023-02-28T01:04:38;6.83;;;4.73;;
15806;SDS011;8005;51.368;6.140;2023-02-28T01:06:11;9.52;;;4.78;;
15806;SDS011;8005;51.368;6.140;2023-02-28T01:07:42;9.63;;;4.97;;
15806;SDS011;8005;51.368;6.140;2023-02-28T01:09:14;9.13;;;4.88;;
15806;SDS011;8005;51.368;6.140;2023-02-28T01:10:46;8.60;;;3.47;;
15806;SDS011;8005;51.368;6.140;2023-02-28T01:12:19;11.63;;;4.53;;
15806;SDS011;8005;51.368;6.140;2023-02-28T01:13:51;8.33;;;4.97;;
15806;SDS011;8005;51.368;6.140;2023-02-28T01:15:23;10.43;;;4.75;;
15806;SDS011;8005;51.368;6.140;2023-02-28T01:16:55;12.55;;;4.97;;
15806;SDS011;8005;51.368;6.140;2023-02-28T01:18:29;10.02;;;4.50;;
15806;SDS011;8005;51.368;6.140;2023-02-28T01:21:34;7.70;;;4.55;;
15806;SDS011;8005;51.368;6.140;2023-02-28T01:23:07;9.48;;;5.28;;
15806;SDS011;8005;51.368;6.140;2023-02-28T01:24:39;7.38;;;4.03;;
15806;SDS011;8005;51.368;6.140;2023-02-28T01:26:14;12.10;;;4.97;;
15806;SDS011;8005;51.368;6.140;2023-02-28T01:27:48;10.60;;;4.55;;
15806;SDS011;8005;51.368;6.140;2023-02-28T01:29:20;9.10;;;4.87;;
15806;SDS011;8005;51.368;6.140;2023-02-28T01:30:52;8.43;;;4.38;;
15806;SDS011;8005;51.368;6.140;2023-02-28T01:32:24;5.20;;;3.35;;
15806;SDS011;8005;51.368;6.140;2023-02-28T01:33:56;8.40;;;4.38;;
15806;SDS011;8005;51.368;6.140;2023-02-28T01:35:32;8.52;;;5.10;;
15806;SDS011;8005;51.368;6.140;2023-02-28T01:37:05;9.70;;;5.25;;
15806;SDS011;8005;51.368;6.140;2023-02-28T01:38:37;10.35;;;4.45;;
15806;SDS011;8005;51.368;6.140;2023-02-28T01:40:10;7.20;;;4.68;;
15806;SDS011;8005;51.368;6.140;2023-02-28T01:41:42;10.48;;;5.95;;
15806;SDS011;8005;51.368;6.140;2023-02-28T01:43:22;10.13;;;4.38;;
15806;SDS011;8005;51.368;6.140;2023-02-28T01:45:02;9.50;;;4.93;;
15806;SDS011;8005;51.368;6.140;2023-02-28T01:46:35;7.95;;;4.63;;
15806;SDS011;8005;51.368;6.140;2023-02-28T01:48:11;9.63;;;5.00;;
15806;SDS011;8005;51.368;6.140;2023-02-28T01:51:26;8.15;;;4.18;;
15806;SDS011;8005;51.368;6.140;2023-02-28T01:53:24;6.72;;;3.92;;
15806;SDS011;8005;51.368;6.140;2023-02-28T01:55:01;11.68;;;4.90;;
15806;SDS011;8005;51.368;6.140;2023-02-28T01:56:34;8.27;;;4.50;;
15806;SDS011;8005;51.368;6.140;2023-02-28T01:58:10;8.95;;;5.00;;
15806;SDS011;8005;51.368;6.140;2023-02-28T02:01:30;9.43;;;4.68;;
15806;SDS011;8005;51.368;6.140;2023-02-28T02:03:06;8.57;;;5.32;;
15806;SDS011;8005;51.368;6.140;2023-02-28T02:04:42;9.30;;;4.70;;
15806;SDS011;8005;51.368;6.140;2023-02-28T02:06:43;9.10;;;4.40;;
15806;SDS011;8005;51.368;6.140;2023-02-28T02:08:19;11.35;;;5.38;;
15806;SDS011;8005;51.368;6.140;2023-02-28T02:10:03;18.50;;;5.53;;
15806;SDS011;8005;51.368;6.140;2023-02-28T02:11:48;11.43;;;5.15;;
15806;SDS011;8005;51.368;6.140;2023-02-28T02:15:09;6.88;;;3.90;;
15806;SDS011;8005;51.368;6.140;2023-02-28T02:18:30;10.02;;;5.22;;
15806;SDS011;8005;51.368;6.140;2023-02-28T02:24:03;12.52;;;5.30;;
15806;SDS011;8005;51.368;6.140;2023-02-28T02:29:41;9.75;;;5.32;;
15806;SDS011;8005;51.368;6.140;2023-02-28T02:31:45;8.93;;;4.40;;
15806;SDS011;8005;51.368;6.140;2023-02-28T02:38:46;13.27;;;4.93;;
15806;SDS011;8005;51.368;6.140;2023-02-28T02:40:20;6.72;;;4.32;;
15806;SDS011;8005;51.368;6.140;2023-02-28T02:41:54;13.68;;;5.25;;
15806;SDS011;8005;51.368;6.140;2023-02-28T02:43:35;7.88;;;5.10;;
15806;SDS011;8005;51.368;6.140;2023-02-28T02:45:14;11.77;;;5.88;;
15806;SDS011;8005;51.368;6.140;2023-02-28T02:46:51;8.68;;;4.70;;
15806;SDS011;8005;51.368;6.140;2023-02-28T02:48:27;8.18;;;4.82;;
15806;SDS011;8005;51.368;6.140;2023-02-28T02:50:02;7.57;;;4.18;;
15806;SDS011;8005;51.368;6.140;2023-02-28T02:51:37;9.20;;;4.18;;
15806;SDS011;8005;51.368;6.140;2023-02-28T02:53:10;11.13;;;4.97;;
15806;SDS011;8005;51.368;6.140;2023-02-28T02:54:44;8.40;;;4.55;;
15806;SDS011;8005;51.368;6.140;2023-02-28T02:56:21;9.70;;;4.68;;
15806;SDS011;8005;51.368;6.140;2023-02-28T02:57:58;9.15;;;4.78;;
15806;SDS011;8005;51.368;6.140;2023-02-28T02:59:34;12.60;;;4.95;;
15806;SDS011;8005;51.368;6.140;2023-02-28T03:01:07;14.73;;;5.68;;
15806;SDS011;8005;51.368;6.140;2023-02-28T03:02:42;10.25;;;5.45;;
15806;SDS011;8005;51.368;6.140;2023-02-28T03:04:16;10.10;;;4.10;;
15806;SDS011;8005;51.368;6.140;2023-02-28T03:05:50;9.57;;;4.40;;
15806;SDS011;8005;51.368;6.140;2023-02-28T03:07:22;9.55;;;4.15;;
15806;SDS011;8005;51.368;6.140;2023-02-28T03:08:55;7.47;;;4.65;;
15806;SDS011;8005;51.368;6.140;2023-02-28T03:10:35;9.02;;;4.47;;
15806;SDS011;8005;51.368;6.140;2023-02-28T03:12:20;6.68;;;4.00;;
15806;SDS011;8005;51.368;6.140;2023-02-28T03:18:08;9.27;;;3.90;;
15806;SDS011;8005;51.368;6.140;2023-02-28T03:23:31;6.88;;;4.30;;
15806;SDS011;8005;51.368;6.140;2023-02-28T03:25:23;11.27;;;5.65;;
15806;SDS011;8005;51.368;6.140;2023-02-28T03:27:16;5.53;;;4.55;;
15806;SDS011;8005;51.368;6.140;2023-02-28T03:29:01;9.68;;;4.75;;
15806;SDS011;8005;51.368;6.140;2023-02-28T03:30:42;8.95;;;4.60;;
15806;SDS011;8005;51.368;6.140;2023-02-28T03:32:21;14.38;;;5.35;;
15806;SDS011;8005;51.368;6.140;2023-02-28T03:35:43;11.90;;;5.25;;
15806;SDS011;8005;51.368;6.140;2023-02-28T03:38:59;11.07;;;5.10;;
15806;SDS011;8005;51.368;6.140;2023-02-28T03:40:37;10.80;;;5.40;;
15806;SDS011;8005;51.368;6.140;2023-02-28T03:42:11;10.90;;;5.50;;
15806;SDS011;8005;51.368;6.140;2023-02-28T03:43:53;9.73;;;4.47;;
15806;SDS011;8005;51.368;6.140;2023-02-28T03:45:30;13.48;;;5.22;;
15806;SDS011;8005;51.368;6.140;2023-02-28T03:47:16;10.88;;;4.68;;
15806;SDS011;8005;51.368;6.140;2023-02-28T03:49:35;9.30;;;4.72;;
15806;SDS011;8005;51.368;6.140;2023-02-28T03:50:49;12.43;;;5.45;;
15806;SDS011;8005;51.368;6.140;2023-02-28T03:52:27;9.07;;;5.10;;
15806;SDS011;8005;51.368;6.140;2023-02-28T03:54:04;10.93;;;5.30;;
15806;SDS011;8005;51.368;6.140;2023-02-28T03:55:40;13.13;;;5.93;;
15806;SDS011;8005;51.368;6.140;2023-02-28T03:59:11;9.57;;;5.35;;
15806;SDS011;8005;51.368;6.140;2023-02-28T04:00:47;11.38;;;5.90;;
15806;SDS011;8005;51.368;6.140;2023-02-28T04:02:22;9.85;;;5.45;;
15806;SDS011;8005;51.368;6.140;2023-02-28T04:03:54;13.98;;;5.60;;
15806;SDS011;8005;51.368;6.140;2023-02-28T04:05:26;10.65;;;4.38;;
15806;SDS011;8005;51.368;6.140;2023-02-28T04:07:06;12.23;;;6.90;;
15806;SDS011;8005;51.368;6.140;2023-02-28T04:08:39;12.55;;;6.10;;
15806;SDS011;8005;51.368;6.140;2023-02-28T04:10:11;13.10;;;5.95;;
15806;SDS011;8005;51.368;6.140;2023-02-28T04:11:50;11.38;;;5.75;;
15806;SDS011;8005;51.368;6.140;2023-02-28T04:13:23;11.57;;;5.78;;
15806;SDS011;8005;51.368;6.140;2023-02-28T04:14:55;12.68;;;6.40;;
15806;SDS011;8005;51.368;6.140;2023-02-28T04:16:28;15.27;;;6.00;;
15806;SDS011;8005;51.368;6.140;2023-02-28T04:18:06;16.92;;;6.20;;
15806;SDS011;8005;51.368;6.140;2023-02-28T04:19:38;24.02;;;5.60;;
15806;SDS011;8005;51.368;6.140;2023-02-28T04:21:11;13.65;;;5.97;;
15806;SDS011;8005;51.368;6.140;2023-02-28T04:22:43;13.30;;;6.13;;
15806;SDS011;8005;51.368;6.140;2023-02-28T04:24:16;11.40;;;5.47;;
15806;SDS011;8005;51.368;6.140;2023-02-28T04:25:49;12.68;;;5.32;;
15806;SDS011;8005;51.368;6.140;2023-02-28T04:28:54;10.55;;;5.75;;
15806;SDS011;8005;51.368;6.140;2023-02-28T04:30:26;15.43;;;6.20;;
15806;SDS011;8005;51.368;6.140;2023-02-28T04:31:58;10.68;;;4.63;;
15806;SDS011;8005;51.368;6.140;2023-02-28T04:33:31;9.10;;;4.72;;
15806;SDS011;8005;51.368;6.140;2023-02-28T04:35:04;9.88;;;5.10;;
15806;SDS011;8005;51.368;6.140;2023-02-28T04:36:36;9.73;;;5.55;;
15806;SDS011;8005;51.368;6.140;2023-02-28T04:38:08;12.65;;;4.82;;
15806;SDS011;8005;51.368;6.140;2023-02-28T04:39:41;9.25;;;5.60;;
15806;SDS011;8005;51.368;6.140;2023-02-28T04:41:13;9.32;;;4.95;;
15806;SDS011;8005;51.368;6.140;2023-02-28T04:42:45;11.38;;;4.80;;
15806;SDS011;8005;51.368;6.140;2023-02-28T04:44:17;11.40;;;5.63;;
15806;SDS011;8005;51.368;6.140;2023-02-28T04:45:49;9.95;;;4.90;;
15806;SDS011;8005;51.368;6.140;2023-02-28T04:47:21;11.48;;;5.10;;
15806;SDS011;8005;51.368;6.140;2023-02-28T04:48:53;13.85;;;6.20;;
15806;SDS011;8005;51.368;6.140;2023-02-28T04:50:26;12.20;;;5.53;;
15806;SDS011;8005;51.368;6.140;2023-02-28T04:51:58;9.27;;;5.55;;
15806;SDS011;8005;51.368;6.140;2023-02-28T04:53:30;12.27;;;6.55;;
15806;SDS011;8005;51.368;6.140;2023-02-28T04:55:02;13.43;;;4.70;;
15806;SDS011;8005;51.368;6.140;2023-02-28T04:56:34;8.65;;;4.75;;
15806;SDS011;8005;51.368;6.140;2023-02-28T04:58:07;7.30;;;4.90;;
15806;SDS011;8005;51.368;6.140;2023-02-28T04:59:40;10.77;;;4.85;;
15806;SDS011;8005;51.368;6.140;2023-02-28T05:01:19;8.07;;;4.47;;
15806;SDS011;8005;51.368;6.140;2023-02-28T05:02:53;10.27;;;5.03;;
15806;SDS011;8005;51.368;6.140;2023-02-28T05:04:25;8.93;;;4.97;;
15806;SDS011;8005;51.368;6.140;2023-02-28T05:05:57;9.10;;;4.72;;
15806;SDS011;8005;51.368;6.140;2023-02-28T05:07:29;10.30;;;4.78;;
15806;SDS011;8005;51.368;6.140;2023-02-28T05:09:01;10.38;;;4.97;;
15806;SDS011;8005;51.368;6.140;2023-02-28T05:10:33;9.25;;;4.72;;
15806;SDS011;8005;51.368;6.140;2023-02-28T05:12:05;9.93;;;5.00;;
15806;SDS011;8005;51.368;6.140;2023-02-28T05:13:37;12.13;;;4.82;;
15806;SDS011;8005;51.368;6.140;2023-02-28T05:15:11;8.47;;;4.93;;
15806;SDS011;8005;51.368;6.140;2023-02-28T05:16:45;9.65;;;4.88;;
15806;SDS011;8005;51.368;6.140;2023-02-28T05:18:16;8.20;;;4.35;;
15806;SDS011;8005;51.368;6.140;2023-02-28T05:19:49;9.75;;;4.47;;
15806;SDS011;8005;51.368;6.140;2023-02-28T05:21:31;9.50;;;4.05;;
15806;SDS011;8005;51.368;6.140;2023-02-28T05:23:04;10.63;;;5.55;;
15806;SDS011;8005;51.368;6.140;2023-02-28T05:24:36;10.23;;;5.23;;
15806;SDS011;8005;51.368;6.140;2023-02-28T05:26:08;10.98;;;5.15;;
15806;SDS011;8005;51.368;6.140;2023-02-28T05:27:40;13.43;;;5.30;;
15806;SDS011;8005;51.368;6.140;2023-02-28T05:29:13;9.85;;;5.35;;
15806;SDS011;8005;51.368;6.140;2023-02-28T05:30:47;20.42;;;5.97;;
15806;SDS011;8005;51.368;6.140;2023-02-28T05:32:22;12.30;;;6.43;;
15806;SDS011;8005;51.368;6.140;2023-02-28T05:33:54;7.50;;;4.10;;
15806;SDS011;8005;51.368;6.140;2023-02-28T05:35:26;13.35;;;5.45;;
15806;SDS011;8005;51.368;6.140;2023-02-28T05:36:58;8.88;;;4.28;;
15806;SDS011;8005;51.368;6.140;2023-02-28T05:38:30;9.65;;;4.43;;
15806;SDS011;8005;51.368;6.140;2023-02-28T05:40:03;11.95;;;5.50;;
15806;SDS011;8005;51.368;6.140;2023-02-28T05:41:42;15.02;;;6.45;;
15806;SDS011;8005;51.368;6.140;2023-02-28T05:44:46;9.75;;;4.82;;
15806;SDS011;8005;51.368;6.140;2023-02-28T05:46:18;10.50;;;4.85;;
15806;SDS011;8005;51.368;6.140;2023-02-28T05:47:53;11.55;;;5.38;;
15806;SDS011;8005;51.368;6.140;2023-02-28T05:49:26;11.02;;;5.90;;
15806;SDS011;8005;51.368;6.140;2023-02-28T05:50:58;8.65;;;4.50;;
15806;SDS011;8005;51.368;6.140;2023-02-28T05:52:30;11.15;;;6.80;;
15806;SDS011;8005;51.368;6.140;2023-02-28T05:54:02;11.38;;;5.75;;
15806;SDS011;8005;51.368;6.140;2023-02-28T05:55:34;9.10;;;5.63;;
15806;SDS011;8005;51.368;6.140;2023-02-28T05:58:54;7.65;;;5.18;;
15806;SDS011;8005;51.368;6.140;2023-02-28T06:00:26;17.00;;;6.00;;
15806;SDS011;8005;51.368;6.140;2023-02-28T06:03:31;11.68;;;5.75;;
15806;SDS011;8005;51.368;6.140;2023-02-28T06:05:03;13.40;;;5.82;;
15806;SDS011;8005;51.368;6.140;2023-02-28T06:06:35;11.70;;;5.47;;
15806;SDS011;8005;51.368;6.140;2023-02-28T06:08:08;12.50;;;5.90;;
15806;SDS011;8005;51.368;6.140;2023-02-28T06:09:40;11.43;;;5.10;;
15806;SDS011;8005;51.368;6.140;2023-02-28T06:11:12;11.53;;;5.77;;
15806;SDS011;8005;51.368;6.140;2023-02-28T06:12:44;11.07;;;4.65;;
15806;SDS011;8005;51.368;6.140;2023-02-28T06:14:17;8.70;;;4.35;;
15806;SDS011;8005;51.368;6.140;2023-02-28T06:15:50;9.80;;;6.03;;
15806;SDS011;8005;51.368;6.140;2023-02-28T06:17:22;9.50;;;5.43;;
15806;SDS011;8005;51.368;6.140;2023-02-28T06:18:54;11.20;;;5.47;;
15806;SDS011;8005;51.368;6.140;2023-02-28T06:20:28;6.68;;;4.40;;
15806;SDS011;8005;51.368;6.140;2023-02-28T06:22:00;9.95;;;5.32;;
15806;SDS011;8005;51.368;6.140;2023-02-28T06:23:32;7.63;;;4.70;;
15806;SDS011;8005;51.368;6.140;2023-02-28T06:25:06;10.90;;;4.63;;
15806;SDS011;8005;51.368;6.140;2023-02-28T06:26:38;13.90;;;5.10;;
15806;SDS011;8005;51.368;6.140;2023-02-28T06:28:13;20.48;;;6.05;;
15806;SDS011;8005;51.368;6.140;2023-02-28T06:29:54;12.27;;;4.43;;
15806;SDS011;8005;51.368;6.140;2023-02-28T06:31:31;13.68;;;5.55;;
15806;SDS011;8005;51.368;6.140;2023-02-28T06:33:11;10.63;;;4.88;;
15806;SDS011;8005;51.368;6.140;2023-02-28T06:34:43;9.73;;;4.55;;
15806;SDS011;8005;51.368;6.140;2023-02-28T06:36:16;7.60;;;3.60;;
15806;SDS011;8005;51.368;6.140;2023-02-28T06:38:19;7.40;;;3.90;;
15806;SDS011;8005;51.368;6.140;2023-02-28T06:39:54;10.35;;;4.40;;
15806;SDS011;8005;51.368;6.140;2023-02-28T06:41:27;9.18;;;4.68;;
15806;SDS011;8005;51.368;6.140;2023-02-28T06:43:03;10.50;;;5.07;;
15806;SDS011;8005;51.368;6.140;2023-02-28T06:44:35;9.07;;;4.55;;
15806;SDS011;8005;51.368;6.140;2023-02-28T06:46:08;12.18;;;5.55;;
15806;SDS011;8005;51.368;6.140;2023-02-28T06:47:44;8.05;;;5.28;;
15806;SDS011;8005;51.368;6.140;2023-02-28T06:49:21;11.45;;;5.35;;
15806;SDS011;8005;51.368;6.140;2023-02-28T06:51:01;16.20;;;8.20;;
15806;SDS011;8005;51.368;6.140;2023-02-28T06:52:41;11.18;;;7.07;;
15806;SDS011;8005;51.368;6.140;2023-02-28T06:54:24;9.07;;;5.38;;
15806;SDS011;8005;51.368;6.140;2023-02-28T06:56:02;12.52;;;6.90;;
15806;SDS011;8005;51.368;6.140;2023-02-28T06:57:42;10.75;;;4.88;;
15806;SDS011;8005;51.368;6.140;2023-02-28T06:59:34;10.77;;;6.13;;
15806;SDS011;8005;51.368;6.140;2023-02-28T07:01:22;8.68;;;4.28;;
15806;SDS011;8005;51.368;6.140;2023-02-28T07:02:57;9.27;;;4.15;;
15806;SDS011;8005;51.368;6.140;2023-02-28T07:04:35;7.55;;;4.05;;
15806;SDS011;8005;51.368;6.140;2023-02-28T07:06:27;9.90;;;3.53;;
15806;SDS011;8005;51.368;6.140;2023-02-28T07:08:05;9.23;;;4.10;;
15806;SDS011;8005;51.368;6.140;2023-02-28T07:09:37;9.30;;;4.38;;
15806;SDS011;8005;51.368;6.140;2023-02-28T07:11:10;6.78;;;3.08;;
15806;SDS011;8005;51.368;6.140;2023-02-28T07:12:47;6.97;;;3.65;;
15806;SDS011;8005;51.368;6.140;2023-02-28T07:14:48;7.30;;;3.45;;
15806;SDS011;8005;51.368;6.140;2023-02-28T07:16:23;6.10;;;3.70;;
15806;SDS011;8005;51.368;6.140;2023-02-28T07:17:56;9.77;;;4.35;;
15806;SDS011;8005;51.368;6.140;2023-02-28T07:19:31;7.27;;;3.80;;
15806;SDS011;8005;51.368;6.140;2023-02-28T07:21:07;7.25;;;4.00;;
15806;SDS011;8005;51.368;6.140;2023-02-28T07:22:53;9.18;;;3.67;;
15806;SDS011;8005;51.368;6.140;2023-02-28T07:24:31;6.60;;;3.65;;
15806;SDS011;8005;51.368;6.140;2023-02-28T07:26:07;6.97;;;3.55;;
15806;SDS011;8005;51.368;6.140;2023-02-28T07:28:13;7.85;;;3.55;;
15806;SDS011;8005;51.368;6.140;2023-02-28T07:32:43;7.15;;;4.07;;
15806;SDS011;8005;51.368;6.140;2023-02-28T07:34:36;10.15;;;4.10;;
15806;SDS011;8005;51.368;6.140;2023-02-28T07:36:19;8.95;;;3.55;;
15806;SDS011;8005;51.368;6.140;2023-02-28T07:38:10;3.28;;;2.35;;
15806;SDS011;8005;51.368;6.140;2023-02-28T07:39:55;7.88;;;2.85;;
15806;SDS011;8005;51.368;6.140;2023-02-28T07:41:32;9.18;;;3.55;;
15806;SDS011;8005;51.368;6.140;2023-02-28T07:43:37;7.35;;;4.18;;
15806;SDS011;8005;51.368;6.140;2023-02-28T07:46:09;8.35;;;3.45;;
15806;SDS011;8005;51.368;6.140;2023-02-28T07:47:55;8.90;;;3.47;;
15806;SDS011;8005;51.368;6.140;2023-02-28T07:57:08;7.10;;;3.20;;
15806;SDS011;8005;51.368;6.140;2023-02-28T07:58:42;7.90;;;4.03;;
15806;SDS011;8005;51.368;6.140;2023-02-28T08:00:15;6.50;;;3.40;;
15806;SDS011;8005;51.368;6.140;2023-02-28T08:01:57;8.75;;;3.10;;
15806;SDS011;8005;51.368;6.140;2023-02-28T08:03:29;8.57;;;3.17;;
15806;SDS011;8005;51.368;6.140;2023-02-28T08:05:01;6.32;;;3.38;;
15806;SDS011;8005;51.368;6.140;2023-02-28T08:06:34;6.25;;;2.50;;
15806;SDS011;8005;51.368;6.140;2023-02-28T08:08:08;5.40;;;2.65;;
15806;SDS011;8005;51.368;6.140;2023-02-28T08:09:41;6.85;;;2.58;;
15806;SDS011;8005;51.368;6.140;2023-02-28T08:11:14;8.68;;;3.00;;
15806;SDS011;8005;51.368;6.140;2023-02-28T08:12:53;6.65;;;3.45;;
15806;SDS011;8005;51.368;6.140;2023-02-28T08:14:32;6.95;;;2.97;;
15806;SDS011;8005;51.368;6.140;2023-02-28T08:16:05;6.30;;;2.85;;
15806;SDS011;8005;51.368;6.140;2023-02-28T08:17:37;5.38;;;3.03;;
15806;SDS011;8005;51.368;6.140;2023-02-28T08:19:09;4.50;;;2.88;;
15806;SDS011;8005;51.368;6.140;2023-02-28T08:20:41;7.38;;;3.00;;
15806;SDS011;8005;51.368;6.140;2023-02-28T08:22:13;3.95;;;2.42;;
15806;SDS011;8005;51.368;6.140;2023-02-28T08:23:46;6.28;;;2.78;;
15806;SDS011;8005;51.368;6.140;2023-02-28T08:25:20;3.90;;;2.15;;
15806;SDS011;8005;51.368;6.140;2023-02-28T08:26:52;4.57;;;2.20;;
15806;SDS011;8005;51.368;6.140;2023-02-28T08:28:24;6.75;;;2.45;;
15806;SDS011;8005;51.368;6.140;2023-02-28T08:29:58;3.85;;;2.30;;
15806;SDS011;8005;51.368;6.140;2023-02-28T08:31:32;10.43;;;2.10;;
15806;SDS011;8005;51.368;6.140;2023-02-28T08:33:04;7.50;;;2.63;;
15806;SDS011;8005;51.368;6.140;2023-02-28T08:34:38;4.57;;;1.83;;
15806;SDS011;8005;51.368;6.140;2023-02-28T08:36:11;5.00;;;2.28;;
15806;SDS011;8005;51.368;6.140;2023-02-28T08:37:43;6.10;;;2.50;;
15806;SDS011;8005;51.368;6.140;2023-02-28T08:39:17;6.28;;;2.53;;
15806;SDS011;8005;51.368;6.140;2023-02-28T08:40:58;4.30;;;1.80;;
15806;SDS011;8005;51.368;6.140;2023-02-28T08:42:31;7.28;;;1.80;;
15806;SDS011;8005;51.368;6.140;2023-02-28T08:44:04;5.75;;;2.03;;
15806;SDS011;8005;51.368;6.140;2023-02-28T08:45:37;3.65;;;2.03;;
15806;SDS011;8005;51.368;6.140;2023-02-28T08:47:11;4.28;;;2.38;;
15806;SDS011;8005;51.368;6.140;2023-02-28T08:48:44;4.57;;;1.70;;
15806;SDS011;8005;51.368;6.140;2023-02-28T08:50:16;3.28;;;2.13;;
15806;SDS011;8005;51.368;6.140;2023-02-28T08:51:49;3.88;;;1.75;;
15806;SDS011;8005;51.368;6.140;2023-02-28T08:53:28;7.03;;;3.25;;
15806;SDS011;8005;51.368;6.140;2023-02-28T08:55:03;2.78;;;1.92;;
15806;SDS011;8005;51.368;6.140;2023-02-28T08:56:38;6.65;;;1.98;;
15806;SDS011;8005;51.368;6.140;2023-02-28T08:58:11;4.50;;;1.80;;
15806;SDS011;8005;51.368;6.140;2023-02-28T08:59:45;3.20;;;1.63;;
15806;SDS011;8005;51.368;6.140;2023-02-28T09:01:26;6.15;;;1.63;;
15806;SDS011;8005;51.368;6.140;2023-02-28T09:03:00;4.70;;;1.65;;
15806;SDS011;8005;51.368;6.140;2023-02-28T09:04:35;2.83;;;1.30;;
15806;SDS011;8005;51.368;6.140;2023-02-28T09:06:09;4.03;;;1.50;;
15806;SDS011;8005;51.368;6.140;2023-02-28T09:07:45;4.63;;;1.40;;
15806;SDS011;8005;51.368;6.140;2023-02-28T09:09:17;3.58;;;1.50;;
15806;SDS011;8005;51.368;6.140;2023-02-28T09:10:51;5.82;;;2.70;;
15806;SDS011;8005;51.368;6.140;2023-02-28T09:12:25;8.77;;;2.40;;
15806;SDS011;8005;51.368;6.140;2023-02-28T09:14:06;2.20;;;1.30;;
15806;SDS011;8005;51.368;6.140;2023-02-28T09:15:38;4.57;;;1.20;;
15806;SDS011;8005;51.368;6.140;2023-02-28T09:17:11;1.83;;;1.00;;
15806;SDS011;8005;51.368;6.140;2023-02-28T09:18:43;4.00;;;1.23;;
15806;SDS011;8005;51.368;6.140;2023-02-28T09:20:20;4.03;;;1.40;;
15806;SDS011;8005;51.368;6.140;2023-02-28T09:21:52;2.13;;;1.37;;
15806;SDS011;8005;51.368;6.140;2023-02-28T09:23:24;4.10;;;1.30;;
15806;SDS011;8005;51.368;6.140;2023-02-28T09:25:06;3.65;;;1.80;;
15806;SDS011;8005;51.368;6.140;2023-02-28T09:26:56;3.30;;;1.33;;
15806;SDS011;8005;51.368;6.140;2023-02-28T09:28:41;3.50;;;1.38;;
15806;SDS011;8005;51.368;6.140;2023-02-28T09:30:13;2.40;;;1.25;;
15806;SDS011;8005;51.368;6.140;2023-02-28T09:31:47;3.85;;;1.38;;
15806;SDS011;8005;51.368;6.140;2023-02-28T09:33:30;2.95;;;1.45;;
15806;SDS011;8005;51.368;6.140;2023-02-28T09:37:31;4.43;;;1.42;;
15806;SDS011;8005;51.368;6.140;2023-02-28T09:39:10;2.50;;;1.17;;
15806;SDS011;8005;51.368;6.140;2023-02-28T09:50:08;4.03;;;1.48;;
15806;SDS011;8005;51.368;6.140;2023-02-28T10:01:25;3.05;;;1.00;;
15806;SDS011;8005;51.368;6.140;2023-02-28T10:11:00;2.28;;;0.95;;
15806;SDS011;8005;51.368;6.140;2023-02-28T10:12:38;3.50;;;1.13;;
15806;SDS011;8005;51.368;6.140;2023-02-28T10:14:19;3.63;;;0.90;;
15806;SDS011;8005;51.368;6.140;2023-02-28T10:15:55;2.67;;;0.90;;
15806;SDS011;8005;51.368;6.140;2023-02-28T10:18:15;4.07;;;0.93;;
15806;SDS011;8005;51.368;6.140;2023-02-28T10:19:42;2.35;;;1.25;;
15806;SDS011;8005;51.368;6.140;2023-02-28T10:23:21;3.63;;;1.10;;
15806;SDS011;8005;51.368;6.140;2023-02-28T10:25:04;3.00;;;1.10;;
15806;SDS011;8005;51.368;6.140;2023-02-28T10:26:47;3.50;;;1.40;;
15806;SDS011;8005;51.368;6.140;2023-02-28T10:28:24;3.22;;;0.93;;
15806;SDS011;8005;51.368;6.140;2023-02-28T10:29:57;3.15;;;0.88;;
15806;SDS011;8005;51.368;6.140;2023-02-28T10:31:33;3.47;;;1.30;;
15806;SDS011;8005;51.368;6.140;2023-02-28T10:33:05;2.58;;;1.52;;
15806;SDS011;8005;51.368;6.140;2023-02-28T10:36:42;3.28;;;1.23;;
15806;SDS011;8005;51.368;6.140;2023-02-28T10:38:16;2.63;;;1.00;;
15806;SDS011;8005;51.368;6.140;2023-02-28T10:39:52;1.30;;;0.80;;
15806;SDS011;8005;51.368;6.140;2023-02-28T10:43:34;3.90;;;0.93;;
15806;SDS011;8005;51.368;6.140;2023-02-28T10:45:16;1.90;;;0.88;;
15806;SDS011;8005;51.368;6.140;2023-02-28T10:46:52;2.22;;;1.00;;
15806;SDS011;8005;51.368;6.140;2023-02-28T10:48:29;1.90;;;1.00;;
15806;SDS011;8005;51.368;6.140;2023-02-28T10:50:42;3.55;;;0.75;;
15806;SDS011;8005;51.368;6.140;2023-02-28T10:52:38;2.28;;;0.88;;
15806;SDS011;8005;51.368;6.140;2023-02-28T10:54:18;6.03;;;1.50;;
15806;SDS011;8005;51.368;6.140;2023-02-28T10:56:26;4.13;;;1.10;;
15806;SDS011;8005;51.368;6.140;2023-02-28T10:57:59;4.38;;;1.00;;
15806;SDS011;8005;51.368;6.140;2023-02-28T10:59:37;3.15;;;1.17;;
15806;SDS011;8005;51.368;6.140;2023-02-28T11:01:13;4.55;;;1.23;;
15806;SDS011;8005;51.368;6.140;2023-02-28T11:04:52;4.50;;;1.00;;
15806;SDS011;8005;51.368;6.140;2023-02-28T11:06:31;4.82;;;1.70;;
15806;SDS011;8005;51.368;6.140;2023-02-28T11:09:39;3.25;;;0.95;;
15806;SDS011;8005;51.368;6.140;2023-02-28T11:11:15;1.73;;;0.93;;
15806;SDS011;8005;51.368;6.140;2023-02-28T11:17:56;2.10;;;1.10;;
15806;SDS011;8005;51.368;6.140;2023-02-28T11:19:37;3.85;;;1.80;;
15806;SDS011;8005;51.368;6.140;2023-02-28T11:21:19;3.25;;;1.23;;
15806;SDS011;8005;51.368;6.140;2023-02-28T11:23:17;2.88;;;1.20;;
15806;SDS011;8005;51.368;6.140;2023-02-28T11:25:03;2.53;;;1.00;;